createdAt,value
2023-05-23T00:04:54.366Z,25.57
2023-05-23T00:09:59.789Z,25.94
2023-05-23T00:15:03.484Z,25.90
2023-05-23T00:20:08.132Z,25.52
2023-05-23T00:25:12.805Z,25.27
2023-05-23T00:30:16.622Z,25.05
2023-05-23T00:35:20.436Z,24.79
2023-05-23T00:40:25.753Z,24.49
2023-05-23T00:45:29.434Z,24.49
2023-05-23T00:50:33.270Z,24.38
2023-05-23T00:55:39.016Z,24.21
2023-05-23T01:00:44.276Z,23.93
2023-05-23T01:05:47.212Z,23.82
2023-05-23T01:10:53.444Z,23.61
2023-05-23T01:16:03.869Z,23.52
2023-05-23T01:21:12.402Z,23.43
2023-05-23T01:26:32.378Z,23.25
2023-05-23T01:31:40.896Z,22.98
2023-05-23T01:36:45.331Z,22.67
2023-05-23T01:41:50.677Z,22.36
2023-05-23T01:46:56.120Z,22.20
2023-05-23T01:52:01.510Z,21.96
2023-05-23T01:57:06.938Z,21.70
2023-05-23T02:02:12.822Z,21.61
2023-05-23T02:07:16.600Z,21.57
2023-05-23T02:12:20.315Z,21.37
2023-05-23T02:17:25.815Z,21.15
2023-05-23T02:22:29.479Z,20.89
2023-05-23T02:27:33.175Z,20.72
2023-05-23T02:32:38.545Z,20.70
2023-05-23T02:37:42.265Z,20.35
2023-05-23T02:42:45.932Z,20.44
2023-05-23T02:47:52.204Z,20.54
2023-05-23T02:52:55.891Z,20.35
2023-05-23T02:57:59.651Z,20.12
2023-05-23T03:03:05.086Z,19.77
2023-05-23T03:08:08.926Z,19.37
2023-05-23T03:13:12.794Z,19.22
2023-05-23T03:18:18.144Z,19.09
2023-05-23T03:23:21.008Z,18.95
2023-05-23T03:28:24.654Z,18.81
2023-05-23T03:33:29.954Z,18.59
2023-05-23T03:38:33.588Z,18.40
2023-05-23T03:43:37.249Z,18.17
2023-05-23T03:48:42.571Z,18.09
2023-05-23T03:53:46.216Z,17.93
2023-05-23T03:58:49.891Z,17.69
2023-05-23T04:03:55.285Z,17.65
2023-05-23T04:08:58.395Z,17.49
2023-05-23T04:14:02.006Z,17.34
2023-05-23T04:19:07.331Z,17.21
2023-05-23T04:24:10.995Z,17.14
2023-05-23T04:29:14.647Z,17.09
2023-05-23T04:34:19.983Z,16.94
2023-05-23T04:39:23.664Z,16.78
2023-05-23T04:44:27.313Z,16.68
2023-05-23T04:49:32.625Z,16.59
2023-05-23T04:54:36.555Z,16.59
2023-05-23T04:59:40.645Z,16.52
2023-05-23T05:04:45.968Z,16.36
2023-05-23T05:09:49.760Z,16.23
2023-05-23T05:14:53.494Z,16.16
2023-05-23T05:19:58.820Z,16.07
2023-05-23T05:25:02.492Z,15.97
2023-05-23T05:30:07.982Z,15.73
2023-05-23T05:35:13.399Z,15.68
2023-05-23T05:40:17.839Z,15.66
2023-05-23T05:45:21.522Z,15.61
2023-05-23T05:50:26.935Z,15.50
2023-05-23T05:55:30.646Z,15.38
2023-05-23T06:00:34.855Z,15.26
2023-05-23T06:05:40.243Z,15.37
2023-05-23T06:10:44.013Z,15.07
2023-05-23T06:15:47.820Z,15.05
2023-05-23T06:20:54.201Z,14.98
2023-05-23T06:25:59.533Z,14.91
2023-05-23T06:31:03.213Z,14.79
2023-05-23T06:36:08.907Z,14.41
2023-05-23T06:41:12.534Z,14.53
2023-05-23T06:46:16.271Z,14.59
2023-05-23T06:51:22.618Z,14.50
2023-05-23T06:56:26.454Z,14.40
2023-05-23T07:01:30.206Z,14.30
2023-05-23T07:06:36.664Z,14.28
2023-05-23T07:11:41.184Z,14.29
2023-05-23T07:16:44.910Z,14.25
2023-05-23T07:21:50.236Z,14.19
2023-05-23T07:26:53.920Z,13.89
2023-05-23T07:31:57.623Z,13.89
2023-05-23T07:37:06.095Z,14.06
2023-05-23T07:42:09.829Z,13.99
2023-05-23T07:47:13.515Z,13.92
2023-05-23T07:52:18.927Z,13.85
2023-05-23T07:57:22.678Z,13.77
2023-05-23T08:02:26.396Z,13.82
2023-05-23T08:07:31.770Z,13.80
2023-05-23T08:12:35.571Z,13.75
2023-05-23T08:17:40.663Z,13.63
2023-05-23T08:22:46.028Z,13.61
2023-05-23T08:27:49.670Z,13.56
2023-05-23T08:32:53.664Z,13.47
2023-05-23T08:37:58.988Z,13.50
2023-05-23T08:43:03.370Z,13.41
2023-05-23T08:48:09.520Z,13.40
2023-05-23T08:53:18.011Z,13.38
2023-05-23T08:58:21.661Z,13.25
2023-05-23T09:03:28.121Z,13.12
2023-05-23T09:08:33.554Z,13.07
2023-05-23T09:13:37.279Z,13.11
2023-05-23T09:18:42.849Z,13.12
2023-05-23T09:23:48.240Z,13.10
2023-05-23T09:28:51.888Z,13.09
2023-05-23T09:33:55.520Z,12.96
2023-05-23T09:39:04.123Z,12.94
2023-05-23T09:44:09.890Z,12.88
2023-05-23T09:49:20.059Z,12.88
2023-05-23T09:54:25.619Z,12.83
2023-05-23T09:59:31.637Z,12.79
2023-05-23T10:04:35.817Z,12.71
2023-05-23T10:09:42.853Z,12.62
2023-05-23T10:14:53.095Z,12.58
2023-05-23T10:20:01.868Z,12.49
2023-05-23T10:25:07.811Z,12.53
2023-05-23T10:30:12.512Z,12.49
2023-05-23T10:35:24.738Z,12.48
2023-05-23T10:40:38.689Z,12.44
2023-05-23T10:45:43.218Z,12.38
2023-05-23T10:50:46.961Z,12.37
2023-05-23T10:55:52.439Z,12.43
2023-05-23T11:00:57.607Z,12.46
2023-05-23T11:06:01.794Z,12.26
2023-05-23T11:11:07.291Z,12.12
2023-05-23T11:16:25.872Z,11.97
2023-05-23T11:21:31.801Z,12.09
2023-05-23T11:26:37.227Z,12.25
2023-05-23T11:31:40.895Z,12.27
2023-05-23T11:36:44.645Z,12.28
2023-05-23T11:42:00.491Z,12.25
2023-05-23T11:47:05.512Z,12.25
2023-05-23T11:52:09.149Z,12.24
2023-05-23T11:57:14.861Z,12.19
2023-05-23T12:02:18.560Z,12.11
2023-05-23T12:07:22.436Z,12.08
2023-05-23T12:12:28.378Z,12.04
2023-05-23T12:17:33.356Z,11.84
2023-05-23T12:22:37.050Z,11.88
2023-05-23T12:27:44.413Z,11.92
2023-05-23T12:32:48.160Z,11.90
2023-05-23T12:37:51.825Z,11.88
2023-05-23T12:42:58.237Z,11.82
2023-05-23T12:48:02.306Z,11.78
2023-05-23T12:53:06.198Z,11.79
2023-05-23T12:58:11.481Z,11.80
2023-05-23T13:03:15.136Z,11.75
2023-05-23T13:08:18.819Z,11.74
2023-05-23T13:13:24.267Z,11.66
2023-05-23T13:18:28.027Z,11.66
2023-05-23T13:23:31.732Z,11.76
2023-05-23T13:28:37.887Z,11.72
2023-05-23T13:33:40.811Z,11.67
2023-05-23T13:38:44.443Z,11.67
2023-05-23T13:43:50.771Z,11.70
2023-05-23T13:48:54.421Z,11.72
2023-05-23T13:53:58.118Z,11.85
2023-05-23T13:59:03.453Z,11.96
2023-05-23T14:04:07.437Z,11.96
2023-05-23T14:09:11.133Z,12.08
2023-05-23T14:14:16.394Z,12.16
2023-05-23T14:19:20.170Z,12.34
2023-05-23T14:24:23.878Z,12.34
2023-05-23T14:29:29.189Z,12.45
2023-05-23T14:34:32.876Z,12.84
2023-05-23T14:39:36.527Z,13.75
2023-05-23T14:44:41.869Z,14.19
2023-05-23T14:49:45.531Z,14.47
2023-05-23T14:54:49.172Z,14.76
2023-05-23T14:59:54.456Z,14.76
2023-05-23T15:04:58.125Z,15.10
2023-05-23T15:10:02.075Z,15.66
2023-05-23T15:15:08.502Z,16.03
2023-05-23T15:20:13.231Z,16.45
2023-05-23T15:25:18.083Z,17.09
2023-05-23T15:30:27.455Z,17.42
2023-05-23T15:35:31.074Z,18.23
2023-05-23T15:40:34.703Z,18.38
2023-05-23T15:45:40.047Z,18.93
2023-05-23T15:50:44.636Z,18.76
2023-05-23T15:55:48.515Z,19.30
2023-05-23T16:00:53.882Z,19.42
2023-05-23T16:05:57.516Z,19.56
2023-05-23T16:11:01.192Z,19.10
2023-05-23T16:16:06.867Z,19.53
2023-05-23T16:21:10.571Z,19.82
2023-05-23T16:26:14.264Z,19.40
2023-05-23T16:31:25.937Z,19.98
2023-05-23T16:36:29.613Z,20.22
2023-05-23T16:41:33.309Z,20.63
2023-05-23T16:46:38.660Z,20.47
2023-05-23T16:51:42.348Z,20.55
2023-05-23T16:56:46.034Z,20.29
2023-05-23T17:01:51.490Z,20.00
2023-05-23T17:06:54.428Z,20.23
2023-05-23T17:11:58.076Z,19.95
2023-05-23T17:17:03.389Z,20.06
2023-05-23T17:22:07.903Z,20.69
2023-05-23T17:27:11.735Z,20.34
2023-05-23T17:32:17.069Z,20.33
2023-05-23T17:37:20.745Z,19.68
2023-05-23T17:42:24.478Z,20.08
2023-05-23T17:47:29.844Z,20.22
2023-05-23T17:52:33.551Z,20.26
2023-05-23T17:57:37.270Z,20.40
2023-05-23T18:02:42.784Z,20.78
2023-05-23T18:07:46.477Z,20.43
2023-05-23T18:12:50.186Z,20.35
2023-05-23T18:17:56.481Z,20.13
2023-05-23T18:23:00.191Z,20.15
2023-05-23T18:28:04.016Z,20.06
2023-05-23T18:33:10.429Z,19.79
2023-05-23T18:38:14.199Z,20.23
2023-05-23T18:43:17.889Z,19.93
2023-05-23T18:48:23.174Z,20.14
2023-05-23T18:53:26.889Z,20.09
2023-05-23T18:58:31.326Z,20.55
2023-05-23T19:03:36.842Z,20.38
2023-05-23T19:08:41.694Z,20.37
2023-05-23T19:13:45.383Z,19.99
2023-05-23T19:18:50.762Z,19.67
2023-05-23T19:23:54.475Z,19.36
2023-05-23T19:28:58.179Z,19.49
2023-05-23T19:34:03.468Z,19.96
2023-05-23T19:39:07.111Z,20.04
2023-05-23T19:44:10.779Z,20.19
2023-05-23T19:49:16.132Z,19.56
2023-05-23T19:54:19.837Z,19.75
2023-05-23T19:59:23.625Z,20.23
2023-05-23T20:04:28.951Z,20.17
2023-05-23T20:09:32.611Z,20.24
2023-05-23T20:14:36.254Z,20.04
2023-05-23T20:19:41.630Z,20.08
2023-05-23T20:24:45.356Z,19.74
2023-05-23T20:29:49.129Z,19.97
2023-05-23T20:34:54.533Z,20.18
2023-05-23T20:39:57.450Z,20.43
2023-05-23T20:45:01.105Z,20.52
2023-05-23T20:50:07.141Z,20.68
2023-05-23T20:55:11.457Z,20.57
2023-05-23T21:00:15.910Z,20.68
2023-05-23T21:05:22.160Z,20.65
2023-05-23T21:10:25.831Z,20.63
2023-05-23T21:15:29.586Z,20.82
2023-05-23T21:20:34.962Z,20.86
2023-05-23T21:25:37.872Z,20.87
2023-05-23T21:30:41.724Z,20.83
2023-05-23T21:35:47.277Z,20.93
2023-05-23T21:40:50.192Z,20.60
2023-05-23T21:45:53.863Z,20.41
2023-05-23T21:50:59.171Z,20.10
2023-05-23T21:56:02.809Z,20.41
2023-05-23T22:01:06.612Z,20.10
2023-05-23T22:06:11.900Z,20.03
2023-05-23T22:11:15.627Z,20.34
2023-05-23T22:16:20.086Z,20.26
2023-05-23T22:21:25.523Z,20.08
2023-05-23T22:26:28.495Z,20.10
2023-05-23T22:31:32.222Z,20.43
2023-05-23T22:36:37.530Z,20.51
2023-05-23T22:41:41.276Z,20.48
2023-05-23T22:46:45.060Z,20.08
2023-05-23T22:51:51.488Z,19.95
2023-05-23T22:56:55.162Z,20.10
2023-05-23T23:01:58.852Z,19.79
2023-05-23T23:07:04.201Z,19.71
2023-05-23T23:12:07.324Z,19.57
2023-05-23T23:17:11.021Z,19.33
2023-05-23T23:22:17.281Z,18.96
2023-05-23T23:27:21.007Z,19.12
2023-05-23T23:32:24.711Z,19.15
2023-05-23T23:37:30.074Z,18.81
2023-05-23T23:42:33.727Z,19.04
2023-05-23T23:47:37.510Z,18.62
2023-05-23T23:52:43.037Z,18.68
2023-05-23T23:57:45.973Z,18.47
